Time;durP1;ratioP1;P1;durP2;ratioP2;P2;SDS_P1;SDS_P2;PMS_P1;PMS_P2;Temp;Humidity;BMP_temperature;BMP_pressure;BME280_temperature;BME280_humidity;BME280_pressure;Samples;Min_cycle;Max_cycle;Signal;HPM_P1;HPM_P2
2023/12/23 00:00:14;;;;;;;;;;;9.20;99.90;;;;;;2617204;54;19935;-71
2023/12/23 00:02:44;;;;;;;;;;;8.80;99.90;;;;;;2616799;47;19958;-72
2023/12/23 00:05:14;;;;;;;;;;;8.40;99.90;;;;;;2618233;54;19950;-70
2023/12/23 00:07:43;;;;;;;;;;;8.30;99.90;;;;;;2620035;54;19943;-70
2023/12/23 00:10:13;;;;;;;;;;;8.10;99.90;;;;;;2620648;54;20426;-71
2023/12/23 00:12:43;;;;;;;;;;;8.10;99.90;;;;;;2619259;54;19955;-70
2023/12/23 00:15:15;;;;;;;;;;;8.00;99.90;;;;;;2621423;47;20002;-70
2023/12/23 00:17:45;;;;;;;;;;;7.90;99.90;;;;;;2621176;54;19947;-71
2023/12/23 00:20:18;;;;;;;;;;;7.90;99.90;;;;;;2621964;54;19950;-69
2023/12/23 00:22:48;;;;;;;;;;;7.90;99.90;;;;;;2620574;54;19941;-70
2023/12/23 00:25:18;;;;;;;;;;;7.90;99.90;;;;;;2622239;54;19935;-70
2023/12/23 00:27:48;;;;;;;;;;;8.00;99.90;;;;;;2622500;54;20026;-69
2023/12/23 00:30:20;;;;;;;;;;;8.00;99.90;;;;;;2622113;47;19949;-70
2023/12/23 00:32:51;;;;;;;;;;;7.90;99.90;;;;;;2621475;47;20476;-70
2023/12/23 00:35:21;;;;;;;;;;;7.90;99.90;;;;;;2622322;54;19950;-70
2023/12/23 00:37:50;;;;;;;;;;;7.90;99.90;;;;;;2592487;54;20942;-70
2023/12/23 00:40:20;;;;;;;;;;;7.90;99.90;;;;;;2619134;54;19958;-70
2023/12/23 00:42:50;;;;;;;;;;;7.90;99.90;;;;;;2621088;54;20045;-70
2023/12/23 00:45:22;;;;;;;;;;;7.90;99.90;;;;;;2616563;54;19934;-70
2023/12/23 00:47:52;;;;;;;;;;;8.00;99.90;;;;;;2617358;47;19947;-71
2023/12/23 00:50:23;;;;;;;;;;;8.00;99.90;;;;;;2617434;47;19946;-70
2023/12/23 00:52:52;;;;;;;;;;;8.00;99.90;;;;;;2615626;46;19975;-72
2023/12/23 00:55:22;;;;;;;;;;;8.00;99.90;;;;;;2619573;47;19951;-70
2023/12/23 00:57:52;;;;;;;;;;;8.00;99.90;;;;;;2622468;54;20505;-69
2023/12/23 01:00:24;;;;;;;;;;;8.00;99.90;;;;;;2619506;47;19945;-70
2023/12/23 01:02:54;;;;;;;;;;;8.10;99.90;;;;;;2620739;54;19994;-70
2023/12/23 01:05:23;;;;;;;;;;;8.10;99.90;;;;;;2622008;54;19946;-70
2023/12/23 01:07:53;;;;;;;;;;;8.10;99.90;;;;;;2620409;54;19958;-69
2023/12/23 01:10:25;;;;;;;;;;;8.10;99.90;;;;;;2619033;54;19950;-70
2023/12/23 01:12:55;;;;;;;;;;;8.20;99.90;;;;;;2617490;54;20041;-71
2023/12/23 01:15:27;;;;;;;;;;;8.20;99.90;;;;;;2617806;46;19965;-71
2023/12/23 01:17:57;;;;;;;;;;;8.20;99.90;;;;;;2617699;47;20023;-71
2023/12/23 01:20:27;;;;;;;;;;;8.30;99.90;;;;;;2617525;47;19934;-71
2023/12/23 01:22:56;;;;;;;;;;;8.30;99.90;;;;;;2621533;47;19950;-71
2023/12/23 01:25:26;;;;;;;;;;;8.40;99.90;;;;;;2619103;54;19942;-70
2023/12/23 01:28:00;;;;;;;;;;;8.40;99.90;;;;;;2616200;54;19954;-70
2023/12/23 01:30:32;;;;;;;;;;;9.50;99.90;;;;;;2616030;47;19957;-70
2023/12/23 01:33:02;;;;;;;;;;;8.40;99.90;;;;;;2617384;54;19998;-70
2023/12/23 01:35:32;;;;;;;;;;;8.40;99.90;;;;;;2620403;47;20696;-70
2023/12/23 01:38:03;;;;;;;;;;;8.40;99.90;;;;;;2618445;54;19953;-71
2023/12/23 01:40:36;;;;;;;;;;;8.30;99.90;;;;;;2618623;31;20489;-70
2023/12/23 01:43:06;;;;;;;;;;;8.40;99.90;;;;;;2620055;54;19985;-70
2023/12/23 01:45:39;;;;;;;;;;;8.40;99.90;;;;;;2620567;47;19957;-70
2023/12/23 01:48:09;;;;;;;;;;;8.40;99.90;;;;;;2621279;47;19954;-73
2023/12/23 01:50:39;;;;;;;;;;;8.40;99.90;;;;;;2622627;47;19951;-71
2023/12/23 01:53:09;;;;;;;;;;;8.40;99.90;;;;;;2622371;54;19945;-70
2023/12/23 01:55:39;;;;;;;;;;;8.40;99.90;;;;;;2622657;54;19939;-71
2023/12/23 01:58:08;;;;;;;;;;;8.40;99.90;;;;;;2621432;47;19953;-70
2023/12/23 02:00:41;;;;;;;;;;;8.40;99.90;;;;;;2621213;50;20222;-69
2023/12/23 02:03:11;;;;;;;;;;;8.40;99.90;;;;;;2621965;47;19992;-71
2023/12/23 02:05:40;;;;;;;;;;;8.50;99.90;;;;;;2622859;47;19954;-70
2023/12/23 02:08:10;;;;;;;;;;;8.40;99.90;;;;;;2622458;54;19938;-70
2023/12/23 02:10:40;;;;;;;;;;;8.40;99.90;;;;;;2621946;47;19938;-70
2023/12/23 02:13:13;;;;;;;;;;;8.40;99.90;;;;;;2622917;39;20340;-71
2023/12/23 02:15:49;;;;;;;;;;;8.40;99.90;;;;;;2623309;54;19951;-71
2023/12/23 02:18:19;;;;;;;;;;;8.40;99.90;;;;;;2622673;47;19951;-70
2023/12/23 02:20:52;;;;;;;;;;;8.30;99.90;;;;;;2622147;54;20486;-71
2023/12/23 02:23:22;;;;;;;;;;;8.30;99.90;;;;;;2622956;54;19949;-70
2023/12/23 02:25:54;;;;;;;;;;;8.30;99.90;;;;;;2621677;54;20476;-69
2023/12/23 02:28:25;;;;;;;;;;;8.40;99.90;;;;;;2622101;54;19950;-70
2023/12/23 02:30:55;;;;;;;;;;;8.20;99.90;;;;;;2619563;52;19947;-70
2023/12/23 02:33:25;;;;;;;;;;;8.30;99.90;;;;;;2621587;54;19955;-69
2023/12/23 02:35:57;;;;;;;;;;;8.40;99.90;;;;;;2622292;47;19939;-70
2023/12/23 02:38:27;;;;;;;;;;;8.30;99.90;;;;;;2623481;54;19956;-70
2023/12/23 02:40:56;;;;;;;;;;;8.30;99.90;;;;;;2619106;54;19938;-70
2023/12/23 02:43:26;;;;;;;;;;;8.30;99.90;;;;;;2620493;54;19954;-71
2023/12/23 02:45:56;;;;;;;;;;;8.40;99.90;;;;;;2621825;54;19946;-70
2023/12/23 02:48:25;;;;;;;;;;;8.40;99.90;;;;;;2619921;54;20014;-70
2023/12/23 02:50:58;;;;;;;;;;;8.40;99.90;;;;;;2621766;54;19977;-70
2023/12/23 02:53:27;;;;;;;;;;;8.40;99.90;;;;;;2622274;47;19938;-69
2023/12/23 02:55:57;;;;;;;;;;;8.50;99.90;;;;;;2621924;46;19947;-70
2023/12/23 02:58:27;;;;;;;;;;;8.40;99.90;;;;;;2623879;39;20403;-70
2023/12/23 03:00:56;;;;;;;;;;;8.30;99.90;;;;;;2621403;39;20345;-71
2023/12/23 03:03:39;;;;;;;;;;;8.40;99.90;;;;;;2620610;54;19989;-71
2023/12/23 03:06:14;;;;;;;;;;;8.40;99.90;;;;;;2621145;54;19950;-70
2023/12/23 03:08:44;;;;;;;;;;;8.30;99.90;;;;;;2622857;54;19947;-70
2023/12/23 03:11:14;;;;;;;;;;;8.40;99.90;;;;;;2621371;47;19959;-70
2023/12/23 03:13:44;;;;;;;;;;;8.40;99.90;;;;;;2622192;39;20381;-70
2023/12/23 03:16:17;;;;;;;;;;;8.40;99.90;;;;;;2618928;47;20040;-70
2023/12/23 03:18:47;;;;;;;;;;;8.40;99.90;;;;;;2619467;54;19947;-70
2023/12/23 03:21:22;;;;;;;;;;;8.40;99.90;;;;;;2616524;54;19990;-72
2023/12/23 03:23:52;;;;;;;;;;;8.40;99.90;;;;;;2615728;47;19951;-69
2023/12/23 03:26:22;;;;;;;;;;;8.40;99.90;;;;;;2616748;54;20457;-69
2023/12/23 03:28:51;;;;;;;;;;;8.40;99.90;;;;;;2618733;47;19946;-70
2023/12/23 03:31:21;;;;;;;;;;;8.50;99.90;;;;;;2619559;54;19954;-71
2023/12/23 03:33:51;;;;;;;;;;;8.50;99.90;;;;;;2615706;47;19951;-70
2023/12/23 03:36:23;;;;;;;;;;;8.50;99.90;;;;;;2616432;54;19978;-71
2023/12/23 03:38:53;;;;;;;;;;;8.50;99.90;;;;;;2616734;47;19947;-69
2023/12/23 03:41:23;;;;;;;;;;;8.50;99.90;;;;;;2616374;47;19954;-71
2023/12/23 03:43:52;;;;;;;;;;;8.50;99.90;;;;;;2616022;54;20054;-69
2023/12/23 03:46:22;;;;;;;;;;;8.50;99.90;;;;;;2616474;47;19962;-69
2023/12/23 03:48:52;;;;;;;;;;;8.50;99.90;;;;;;2616789;54;20042;-71
2023/12/23 03:51:24;;;;;;;;;;;8.60;99.90;;;;;;2617035;47;19938;-71
2023/12/23 03:53:54;;;;;;;;;;;8.60;99.90;;;;;;2615776;39;20503;-70
2023/12/23 03:56:24;;;;;;;;;;;8.60;99.90;;;;;;2616394;39;20376;-70
2023/12/23 03:58:53;;;;;;;;;;;8.60;99.90;;;;;;2617477;47;20453;-69
2023/12/23 04:01:23;;;;;;;;;;;8.70;99.90;;;;;;2615476;54;19946;-71
2023/12/23 04:03:53;;;;;;;;;;;8.70;99.90;;;;;;2615867;47;19946;-69
2023/12/23 04:06:25;;;;;;;;;;;8.70;99.90;;;;;;2616253;54;19939;-69
2023/12/23 04:08:55;;;;;;;;;;;8.80;99.90;;;;;;2617319;54;19951;-69
2023/12/23 04:11:25;;;;;;;;;;;9.20;99.90;;;;;;2618278;39;20345;-69
2023/12/23 04:13:54;;;;;;;;;;;8.80;99.90;;;;;;2618035;50;20018;-69
2023/12/23 04:16:24;;;;;;;;;;;8.90;99.90;;;;;;2616556;54;19956;-70
2023/12/23 04:18:54;;;;;;;;;;;8.90;99.90;;;;;;2616693;54;20485;-70
2023/12/23 04:21:26;;;;;;;;;;;8.90;99.90;;;;;;2617390;51;19939;-70
2023/12/23 04:23:56;;;;;;;;;;;8.90;99.90;;;;;;2620490;54;19950;-69
2023/12/23 04:26:26;;;;;;;;;;;8.90;99.90;;;;;;2620558;54;19947;-69
2023/12/23 04:28:55;;;;;;;;;;;8.90;99.90;;;;;;2621284;54;19947;-69
2023/12/23 04:31:25;;;;;;;;;;;8.90;99.90;;;;;;2620761;54;19993;-71
2023/12/23 04:33:55;;;;;;;;;;;9.00;99.90;;;;;;2621107;54;19951;-71
2023/12/23 04:36:28;;;;;;;;;;;9.00;99.90;;;;;;2620495;54;19939;-69
2023/12/23 04:38:57;;;;;;;;;;;9.00;99.90;;;;;;2618079;47;19939;-69
2023/12/23 04:41:27;;;;;;;;;;;9.00;99.90;;;;;;2618148;54;19995;-69
2023/12/23 04:43:57;;;;;;;;;;;9.00;99.90;;;;;;2619024;54;19950;-70
2023/12/23 04:46:28;;;;;;;;;;;8.10;99.90;;;;;;2617018;54;19989;-70
2023/12/23 04:48:57;;;;;;;;;;;9.00;99.90;;;;;;2615510;47;19951;-70
2023/12/23 04:51:30;;;;;;;;;;;9.00;99.90;;;;;;2618908;47;19958;-70
2023/12/23 04:53:59;;;;;;;;;;;9.10;99.90;;;;;;2617915;47;21272;-70
2023/12/23 04:56:29;;;;;;;;;;;9.00;99.90;;;;;;2619019;47;19947;-69
2023/12/23 04:58:58;;;;;;;;;;;9.10;99.90;;;;;;2618177;54;19945;-70
2023/12/23 05:01:28;;;;;;;;;;;9.10;99.90;;;;;;2617038;39;20370;-70
2023/12/23 05:03:58;;;;;;;;;;;9.10;99.90;;;;;;2616745;54;19952;-69
2023/12/23 05:06:30;;;;;;;;;;;9.00;99.90;;;;;;2618213;48;19957;-70
2023/12/23 05:09:00;;;;;;;;;;;9.10;99.90;;;;;;2616923;54;19946;-70
2023/12/23 05:11:33;;;;;;;;;;;9.70;99.90;;;;;;2617428;54;19952;-70
2023/12/23 05:14:02;;;;;;;;;;;9.10;99.90;;;;;;2616799;47;20082;-70
2023/12/23 05:16:32;;;;;;;;;;;9.10;99.90;;;;;;2617234;39;20514;-70
2023/12/23 05:21:33;;;;;;;;;;;9.10;99.90;;;;;;2616787;54;19958;-71
2023/12/23 05:24:03;;;;;;;;;;;9.20;99.90;;;;;;2617078;54;19979;-71
2023/12/23 05:26:33;;;;;;;;;;;9.20;99.90;;;;;;2618103;54;19973;-70
2023/12/23 05:29:03;;;;;;;;;;;9.30;99.90;;;;;;2617267;54;19962;-71
2023/12/23 05:31:34;;;;;;;;;;;9.30;99.90;;;;;;2617289;47;19946;-71
2023/12/23 05:34:03;;;;;;;;;;;9.30;99.90;;;;;;2616257;47;19947;-71
2023/12/23 05:36:36;;;;;;;;;;;9.30;99.90;;;;;;2621788;54;19950;-71
2023/12/23 05:39:06;;;;;;;;;;;9.30;99.90;;;;;;2618975;54;20096;-71
2023/12/23 05:41:35;;;;;;;;;;;9.30;99.90;;;;;;2615801;54;19946;-70
2023/12/23 05:44:07;;;;;;;;;;;9.30;99.90;;;;;;2617150;54;19951;-70
2023/12/23 05:46:37;;;;;;;;;;;9.30;99.90;;;;;;2615716;54;20041;-70
2023/12/23 05:49:07;;;;;;;;;;;9.30;99.90;;;;;;2615273;54;19966;-69
2023/12/23 05:51:39;;;;;;;;;;;9.30;99.90;;;;;;2617119;54;20473;-70
2023/12/23 05:54:09;;;;;;;;;;;9.30;99.90;;;;;;2615865;54;19954;-70
2023/12/23 05:56:38;;;;;;;;;;;9.30;99.90;;;;;;2615470;54;19967;-70
2023/12/23 05:59:08;;;;;;;;;;;9.40;99.90;;;;;;2616098;54;19974;-71
2023/12/23 06:01:38;;;;;;;;;;;9.40;99.90;;;;;;2618113;47;19947;-71
2023/12/23 06:04:07;;;;;;;;;;;9.30;99.90;;;;;;2618753;54;19953;-71
2023/12/23 06:06:40;;;;;;;;;;;9.30;99.90;;;;;;2619341;54;19954;-70
2023/12/23 06:09:09;;;;;;;;;;;9.40;99.90;;;;;;2615449;54;20464;-70
2023/12/23 06:11:39;;;;;;;;;;;9.40;99.90;;;;;;2617004;39;20359;-70
2023/12/23 06:14:09;;;;;;;;;;;9.50;99.90;;;;;;2616436;31;20389;-70
2023/12/23 06:16:42;;;;;;;;;;;9.50;99.90;;;;;;2617599;54;19939;-70
2023/12/23 06:19:12;;;;;;;;;;;9.50;99.90;;;;;;2617337;47;20013;-70
2023/12/23 06:21:46;;;;;;;;;;;9.50;99.90;;;;;;2617647;47;19982;-70
2023/12/23 06:24:16;;;;;;;;;;;9.50;99.90;;;;;;2615577;54;20053;-70
2023/12/23 06:26:45;;;;;;;;;;;9.50;99.90;;;;;;2616522;47;20037;-71
2023/12/23 06:29:15;;;;;;;;;;;9.40;99.90;;;;;;2615876;54;19962;-70
2023/12/23 06:31:45;;;;;;;;;;;9.50;99.90;;;;;;2615234;39;20344;-70
2023/12/23 06:34:15;;;;;;;;;;;9.40;99.90;;;;;;2617027;39;20334;-71
2023/12/23 06:36:47;;;;;;;;;;;9.50;99.90;;;;;;2616652;54;19950;-70
2023/12/23 06:39:17;;;;;;;;;;;9.40;99.90;;;;;;2617435;39;20381;-70
2023/12/23 06:41:46;;;;;;;;;;;9.50;99.90;;;;;;2618202;54;19968;-71
2023/12/23 06:44:17;;;;;;;;;;;9.50;99.90;;;;;;2615834;47;20029;-70
2023/12/23 06:46:47;;;;;;;;;;;9.50;99.90;;;;;;2614610;50;19942;-70
2023/12/23 06:49:20;;;;;;;;;;;9.50;99.90;;;;;;2617154;39;20380;-71
2023/12/23 06:51:52;;;;;;;;;;;9.00;99.90;;;;;;2615012;47;19939;-70
2023/12/23 06:54:22;;;;;;;;;;;9.60;99.90;;;;;;2613628;47;19946;-71
2023/12/23 06:56:52;;;;;;;;;;;9.60;99.90;;;;;;2616623;54;19953;-71
2023/12/23 06:59:21;;;;;;;;;;;9.60;99.90;;;;;;2615508;54;19947;-71
2023/12/23 07:01:51;;;;;;;;;;;9.60;99.90;;;;;;2614512;47;20059;-70
2023/12/23 07:04:21;;;;;;;;;;;9.50;99.90;;;;;;2615383;54;19935;-70
2023/12/23 07:06:53;;;;;;;;;;;9.50;99.90;;;;;;2616298;47;19945;-70
2023/12/23 07:09:23;;;;;;;;;;;9.50;99.90;;;;;;2615540;54;19949;-69
2023/12/23 07:11:52;;;;;;;;;;;9.60;99.90;;;;;;2616574;47;20013;-70
2023/12/23 07:14:22;;;;;;;;;;;9.60;99.90;;;;;;2614757;47;19962;-71
2023/12/23 07:16:52;;;;;;;;;;;9.60;99.90;;;;;;2616544;54;19973;-70
2023/12/23 07:19:22;;;;;;;;;;;9.60;99.90;;;;;;2616733;31;20446;-71
2023/12/23 07:21:55;;;;;;;;;;;9.50;99.90;;;;;;2617648;47;19950;-69
2023/12/23 07:24:24;;;;;;;;;;;10.10;99.90;;;;;;2620400;47;19995;-71
2023/12/23 07:26:55;;;;;;;;;;;9.50;99.90;;;;;;2619393;46;19956;-71
2023/12/23 07:29:25;;;;;;;;;;;9.50;99.90;;;;;;2617852;50;19935;-71
2023/12/23 07:31:55;;;;;;;;;;;9.50;99.90;;;;;;2615920;54;19969;-70
2023/12/23 07:34:24;;;;;;;;;;;9.50;99.90;;;;;;2615074;47;19939;-71
2023/12/23 07:36:57;;;;;;;;;;;9.50;99.90;;;;;;2616833;54;19974;-70
2023/12/23 07:39:26;;;;;;;;;;;9.50;99.90;;;;;;2615598;47;19955;-70
2023/12/23 07:41:57;;;;;;;;;;;9.40;99.90;;;;;;2616986;47;19946;-70
2023/12/23 07:44:27;;;;;;;;;;;9.40;99.90;;;;;;2619521;54;19953;-70
2023/12/23 07:46:56;;;;;;;;;;;9.40;99.90;;;;;;2616892;49;19987;-70
2023/12/23 07:49:27;;;;;;;;;;;9.40;99.90;;;;;;2617129;54;19977;-70
2023/12/23 07:51:59;;;;;;;;;;;9.40;99.90;;;;;;2614453;47;19939;-70
2023/12/23 07:54:28;;;;;;;;;;;9.50;99.90;;;;;;2613898;54;19939;-71
2023/12/23 07:56:58;;;;;;;;;;;9.30;99.90;;;;;;2618344;53;19946;-70
2023/12/23 07:59:28;;;;;;;;;;;9.40;99.90;;;;;;2617952;54;19958;-70
2023/12/23 08:01:58;;;;;;;;;;;9.50;99.90;;;;;;2618137;47;19951;-72
2023/12/23 08:04:27;;;;;;;;;;;9.50;99.90;;;;;;2615925;48;19947;-73
2023/12/23 08:06:59;;;;;;;;;;;9.50;99.90;;;;;;2617221;47;19934;-72
2023/12/23 08:09:29;;;;;;;;;;;9.50;99.90;;;;;;2617685;39;20361;-71
2023/12/23 08:11:59;;;;;;;;;;;9.50;99.90;;;;;;2617127;54;19945;-70
2023/12/23 08:14:28;;;;;;;;;;;9.50;99.90;;;;;;2614724;54;19943;-71
2023/12/23 08:16:58;;;;;;;;;;;9.50;99.90;;;;;;2616118;47;20694;-70
2023/12/23 08:19:28;;;;;;;;;;;9.50;99.90;;;;;;2613628;47;19943;-71
2023/12/23 08:22:00;;;;;;;;;;;9.50;99.90;;;;;;2616330;31;20465;-71
2023/12/23 08:24:30;;;;;;;;;;;9.50;99.90;;;;;;2615244;47;20600;-72
2023/12/23 08:27:01;;;;;;;;;;;9.50;99.90;;;;;;2616193;47;19939;-73
2023/12/23 08:29:31;;;;;;;;;;;9.50;99.90;;;;;;2616837;47;21242;-73
2023/12/23 08:32:01;;;;;;;;;;;9.60;99.90;;;;;;2617035;54;19947;-75
2023/12/23 08:34:31;;;;;;;;;;;9.60;99.90;;;;;;2617782;31;20393;-73
2023/12/23 08:37:03;;;;;;;;;;;9.60;99.90;;;;;;2615918;54;19956;-71
2023/12/23 08:39:32;;;;;;;;;;;9.50;99.90;;;;;;2618101;47;19954;-73
2023/12/23 08:42:02;;;;;;;;;;;9.50;99.90;;;;;;2618312;47;19979;-72
2023/12/23 08:44:32;;;;;;;;;;;9.50;99.90;;;;;;2618022;47;19946;-73
2023/12/23 08:47:02;;;;;;;;;;;9.60;99.90;;;;;;2616982;54;19998;-73
2023/12/23 08:49:34;;;;;;;;;;;9.60;99.90;;;;;;2618275;46;19955;-73
2023/12/23 08:52:07;;;;;;;;;;;9.60;99.90;;;;;;2617728;54;19975;-73
2023/12/23 08:54:36;;;;;;;;;;;9.70;99.90;;;;;;2616182;54;19957;-72
2023/12/23 08:57:10;;;;;;;;;;;9.60;99.90;;;;;;2614529;47;19950;-74
2023/12/23 08:59:40;;;;;;;;;;;9.60;99.90;;;;;;2617432;54;19938;-71
2023/12/23 09:02:10;;;;;;;;;;;9.60;99.90;;;;;;2616235;54;19953;-72
2023/12/23 09:04:40;;;;;;;;;;;9.60;99.90;;;;;;2617976;54;19947;-73
2023/12/23 09:07:12;;;;;;;;;;;9.60;99.90;;;;;;2617742;47;19950;-71
2023/12/23 09:09:43;;;;;;;;;;;9.70;99.90;;;;;;2616901;47;19947;-72
2023/12/23 09:12:12;;;;;;;;;;;9.70;99.90;;;;;;2616724;54;19950;-73
2023/12/23 09:14:42;;;;;;;;;;;9.70;99.90;;;;;;2616811;54;19960;-73
2023/12/23 09:17:12;;;;;;;;;;;9.70;99.90;;;;;;2616232;54;19946;-73
2023/12/23 09:19:41;;;;;;;;;;;9.60;99.90;;;;;;2619446;47;19946;-75
2023/12/23 09:22:13;;;;;;;;;;;9.70;99.90;;;;;;2617408;54;22468;-74
2023/12/23 09:24:45;;;;;;;;;;;9.70;99.90;;;;;;2616981;47;19946;-73
2023/12/23 09:27:15;;;;;;;;;;;9.70;99.90;;;;;;2616685;54;20066;-72
2023/12/23 09:29:45;;;;;;;;;;;9.70;99.90;;;;;;2618602;54;20434;-73
2023/12/23 09:32:15;;;;;;;;;;;9.70;99.90;;;;;;2617613;46;19971;-74
2023/12/23 09:34:45;;;;;;;;;;;9.60;99.90;;;;;;2618476;39;20632;-74
2023/12/23 09:37:18;;;;;;;;;;;9.60;99.90;;;;;;2620110;54;19966;-73
2023/12/23 09:39:47;;;;;;;;;;;9.60;99.90;;;;;;2622594;54;19934;-74
2023/12/23 09:42:17;;;;;;;;;;;9.70;99.90;;;;;;2622349;54;19998;-74
2023/12/23 09:44:50;;;;;;;;;;;9.80;99.90;;;;;;2619942;47;19990;-73
2023/12/23 09:47:20;;;;;;;;;;;9.80;99.90;;;;;;2620004;54;20642;-75
2023/12/23 09:49:50;;;;;;;;;;;9.80;99.90;;;;;;2621360;54;20602;-75
2023/12/23 09:52:22;;;;;;;;;;;9.80;99.90;;;;;;2622875;54;19943;-74
2023/12/23 09:54:53;;;;;;;;;;;9.80;99.90;;;;;;2617683;47;19946;-74
2023/12/23 09:57:23;;;;;;;;;;;9.80;99.90;;;;;;2618360;47;19942;-74
2023/12/23 09:59:54;;;;;;;;;;;9.80;99.90;;;;;;2618122;46;20041;-74
2023/12/23 10:02:24;;;;;;;;;;;9.80;99.90;;;;;;2616624;46;19951;-75
2023/12/23 10:04:53;;;;;;;;;;;9.80;99.90;;;;;;2617703;54;20543;-74
2023/12/23 10:07:26;;;;;;;;;;;9.80;99.90;;;;;;2619629;47;19950;-74
2023/12/23 10:09:57;;;;;;;;;;;9.80;99.90;;;;;;2623261;47;19977;-74
2023/12/23 10:12:27;;;;;;;;;;;9.90;99.90;;;;;;2624553;47;19994;-74
2023/12/23 10:14:56;;;;;;;;;;;9.80;99.90;;;;;;2620072;47;20037;-74
2023/12/23 10:17:26;;;;;;;;;;;9.90;99.90;;;;;;2620621;54;19973;-74
2023/12/23 10:19:58;;;;;;;;;;;9.90;99.90;;;;;;2620762;47;20002;-75
2023/12/23 10:22:31;;;;;;;;;;;10.00;99.90;;;;;;2618690;47;20006;-74
2023/12/23 10:25:01;;;;;;;;;;;10.00;99.90;;;;;;2617882;50;19939;-73
2023/12/23 10:27:32;;;;;;;;;;;10.00;99.90;;;;;;2617794;47;19938;-72
2023/12/23 10:30:05;;;;;;;;;;;10.00;99.90;;;;;;2616402;47;19953;-73
2023/12/23 10:32:36;;;;;;;;;;;10.00;99.90;;;;;;2614369;47;19942;-73
2023/12/23 10:35:08;;;;;;;;;;;10.10;99.90;;;;;;2616813;39;20287;-74
2023/12/23 10:37:45;;;;;;;;;;;10.10;99.90;;;;;;2615307;47;19946;-72
2023/12/23 10:40:19;;;;;;;;;;;10.10;99.90;;;;;;2615930;47;19947;-72
2023/12/23 10:42:50;;;;;;;;;;;10.20;99.90;;;;;;2617116;47;19954;-72
2023/12/23 10:45:22;;;;;;;;;;;10.40;99.90;;;;;;2616486;51;19957;-72
2023/12/23 10:47:51;;;;;;;;;;;10.20;99.90;;;;;;2616482;47;19968;-71
2023/12/23 10:50:21;;;;;;;;;;;10.20;99.90;;;;;;2615129;54;20461;-73
2023/12/23 10:52:56;;;;;;;;;;;10.20;99.90;;;;;;2616752;54;19954;-72
2023/12/23 10:55:26;;;;;;;;;;;10.20;99.90;;;;;;2616744;47;19973;-72
2023/12/23 10:57:59;;;;;;;;;;;10.20;99.90;;;;;;2617016;54;20043;-73
2023/12/23 11:00:29;;;;;;;;;;;10.20;99.90;;;;;;2617574;47;19962;-74
2023/12/23 11:03:00;;;;;;;;;;;10.20;99.90;;;;;;2618397;54;19942;-74
2023/12/23 11:05:30;;;;;;;;;;;10.20;99.90;;;;;;2618753;54;19952;-73
2023/12/23 11:08:03;;;;;;;;;;;10.30;99.90;;;;;;2619592;47;19935;-74
2023/12/23 11:10:47;;;;;;;;;;;10.30;99.90;;;;;;2617217;54;20706;-72
2023/12/23 11:13:17;;;;;;;;;;;10.40;99.90;;;;;;2619223;54;19946;-72
2023/12/23 11:15:49;;;;;;;;;;;10.50;99.90;;;;;;2614647;47;19953;-71
2023/12/23 13:02:53;;;;;;;;;;;10.50;99.90;;;;;;2592316;46;20092;-73
2023/12/23 13:05:23;;;;;;;;;;;10.70;99.90;;;;;;2624927;54;19973;-73
2023/12/23 13:07:53;;;;;;;;;;;11.50;99.90;;;;;;2619492;47;19950;-74
2023/12/23 13:10:23;;;;;;;;;;;11.10;99.90;;;;;;2620139;39;20365;-75
2023/12/23 13:12:52;;;;;;;;;;;11.10;99.90;;;;;;2618753;47;20533;-73
2023/12/23 13:15:22;;;;;;;;;;;11.00;99.90;;;;;;2617570;54;19952;-75
2023/12/23 13:17:55;;;;;;;;;;;11.00;99.90;;;;;;2611194;47;19945;-74
2023/12/23 13:20:25;;;;;;;;;;;11.00;99.90;;;;;;2614779;54;19946;-75
2023/12/23 13:22:55;;;;;;;;;;;11.10;99.90;;;;;;2615510;54;19970;-74
2023/12/23 13:25:25;;;;;;;;;;;11.10;99.90;;;;;;2617393;54;20009;-74
2023/12/23 13:27:54;;;;;;;;;;;11.20;99.90;;;;;;2617130;47;19934;-74
2023/12/23 13:30:24;;;;;;;;;;;11.20;99.90;;;;;;2617011;54;19950;-74
2023/12/23 13:32:57;;;;;;;;;;;11.30;99.90;;;;;;2617275;54;19966;-74
2023/12/23 13:35:27;;;;;;;;;;;11.30;99.90;;;;;;2617305;54;20034;-74
2023/12/23 13:37:57;;;;;;;;;;;11.40;99.90;;;;;;2616929;54;19980;-75
2023/12/23 13:40:27;;;;;;;;;;;11.40;99.90;;;;;;2615885;54;19950;-75
2023/12/23 13:42:56;;;;;;;;;;;11.40;99.90;;;;;;2617291;47;19946;-75
2023/12/23 13:45:26;;;;;;;;;;;11.40;99.90;;;;;;2617632;54;19939;-76
2023/12/23 13:47:58;;;;;;;;;;;11.50;99.90;;;;;;2617331;47;19939;-75
2023/12/23 13:50:28;;;;;;;;;;;11.70;99.90;;;;;;2616798;53;19939;-75
2023/12/23 13:52:58;;;;;;;;;;;11.40;99.90;;;;;;2616011;47;19939;-75
2023/12/23 13:55:28;;;;;;;;;;;11.30;99.90;;;;;;2616122;47;19943;-75
2023/12/23 13:57:57;;;;;;;;;;;11.30;99.90;;;;;;2617545;47;19947;-75
2023/12/23 14:00:27;;;;;;;;;;;11.30;99.90;;;;;;2617793;39;20348;-74
2023/12/23 14:02:59;;;;;;;;;;;11.30;99.90;;;;;;2617016;54;19951;-76
2023/12/23 14:05:29;;;;;;;;;;;11.20;99.90;;;;;;2617758;47;19934;-75
2023/12/23 14:07:58;;;;;;;;;;;11.20;99.90;;;;;;2617757;39;20368;-75
2023/12/23 14:10:28;;;;;;;;;;;11.20;99.90;;;;;;2615276;47;19954;-74
2023/12/23 14:12:58;;;;;;;;;;;11.10;99.90;;;;;;2616662;54;19946;-74
2023/12/23 14:15:27;;;;;;;;;;;11.10;99.90;;;;;;2616912;47;19977;-73
2023/12/23 14:17:59;;;;;;;;;;;11.10;99.90;;;;;;2617128;54;19947;-73
2023/12/23 14:20:29;;;;;;;;;;;11.00;99.90;;;;;;2615866;39;20550;-73
2023/12/23 14:22:59;;;;;;;;;;;11.00;99.90;;;;;;2616911;47;20472;-73
2023/12/23 14:25:44;;;;;;;;;;;11.00;99.90;;;;;;2616087;54;20046;-72
2023/12/23 14:28:14;;;;;;;;;;;10.90;99.90;;;;;;2616825;54;19950;-72
2023/12/23 14:30:47;;;;;;;;;;;10.80;99.90;;;;;;2614800;54;20026;-73
2023/12/23 14:33:19;;;;;;;;;;;10.90;99.90;;;;;;2616416;39;20356;-72
2023/12/23 14:35:50;;;;;;;;;;;10.80;99.90;;;;;;2616636;54;19951;-72
2023/12/23 14:38:20;;;;;;;;;;;10.80;99.90;;;;;;2616979;47;19947;-73
2023/12/23 14:40:51;;;;;;;;;;;10.80;99.90;;;;;;2616405;47;19958;-74
2023/12/23 14:43:21;;;;;;;;;;;10.70;99.90;;;;;;2615710;47;20536;-73
2023/12/23 14:45:51;;;;;;;;;;;10.70;99.90;;;;;;2616492;54;20038;-72
2023/12/23 14:48:23;;;;;;;;;;;10.70;99.90;;;;;;2617279;54;19977;-73
2023/12/23 14:50:53;;;;;;;;;;;10.70;99.90;;;;;;2616303;49;19947;-74
2023/12/23 14:53:23;;;;;;;;;;;10.60;99.90;;;;;;2616141;54;19935;-73
2023/12/23 14:55:52;;;;;;;;;;;10.60;99.90;;;;;;2616315;54;19953;-72
2023/12/23 14:58:22;;;;;;;;;;;10.50;99.90;;;;;;2617494;47;20033;-73
2023/12/23 15:00:52;;;;;;;;;;;10.50;99.90;;;;;;2623141;47;19946;-73
2023/12/23 15:03:24;;;;;;;;;;;10.60;99.90;;;;;;2621067;54;19951;-72
2023/12/23 15:05:54;;;;;;;;;;;10.50;99.90;;;;;;2619203;31;20442;-74
2023/12/23 15:08:24;;;;;;;;;;;10.40;99.90;;;;;;2616323;54;19938;-72
2023/12/23 15:10:53;;;;;;;;;;;10.50;99.90;;;;;;2617748;54;19939;-75
2023/12/23 15:13:24;;;;;;;;;;;10.60;99.90;;;;;;2616740;47;19943;-75
2023/12/23 15:15:54;;;;;;;;;;;10.40;99.90;;;;;;2617264;47;19939;-75
2023/12/23 15:18:26;;;;;;;;;;;10.40;99.90;;;;;;2617613;47;19949;-76
2023/12/23 15:20:56;;;;;;;;;;;10.40;99.90;;;;;;2616979;47;19990;-74
2023/12/23 15:23:25;;;;;;;;;;;10.70;99.90;;;;;;2616969;47;19949;-74
2023/12/23 15:25:55;;;;;;;;;;;10.50;99.90;;;;;;2615846;47;20235;-73
2023/12/23 15:28:27;;;;;;;;;;;10.50;99.90;;;;;;2615925;47;20057;-74
2023/12/23 15:30:57;;;;;;;;;;;10.50;99.90;;;;;;2616470;47;19975;-72
2023/12/23 15:33:29;;;;;;;;;;;10.50;99.90;;;;;;2616009;54;19935;-72
2023/12/23 15:35:59;;;;;;;;;;;10.50;99.90;;;;;;2617139;54;19962;-73
2023/12/23 15:38:29;;;;;;;;;;;10.50;99.90;;;;;;2616310;54;20033;-74
2023/12/23 15:40:58;;;;;;;;;;;10.50;99.90;;;;;;2616161;54;19954;-74
2023/12/23 15:43:28;;;;;;;;;;;10.60;99.90;;;;;;2617074;54;19939;-75
2023/12/23 15:45:58;;;;;;;;;;;10.50;99.90;;;;;;2616821;47;19958;-76
2023/12/23 15:48:30;;;;;;;;;;;10.60;99.90;;;;;;2617164;54;19950;-75
2023/12/23 15:51:00;;;;;;;;;;;10.60;99.90;;;;;;2616629;54;19947;-77
2023/12/23 15:53:29;;;;;;;;;;;10.60;99.90;;;;;;2616696;47;19947;-75
2023/12/23 15:56:02;;;;;;;;;;;10.60;99.90;;;;;;2615649;54;19957;-75
2023/12/23 15:58:32;;;;;;;;;;;10.60;99.90;;;;;;2616304;54;19942;-74
2023/12/23 16:01:02;;;;;;;;;;;10.60;99.90;;;;;;2616024;47;19946;-75
2023/12/23 16:03:35;;;;;;;;;;;10.60;99.90;;;;;;2616241;39;20386;-74
2023/12/23 16:06:04;;;;;;;;;;;11.20;99.90;;;;;;2615535;54;20450;-76
2023/12/23 16:08:34;;;;;;;;;;;10.60;99.90;;;;;;2616143;47;19946;-73
2023/12/23 16:11:04;;;;;;;;;;;10.50;99.90;;;;;;2615813;54;19946;-73
2023/12/23 16:13:34;;;;;;;;;;;10.40;99.90;;;;;;2614522;47;20050;-74
2023/12/23 16:16:04;;;;;;;;;;;10.50;99.90;;;;;;2617000;46;19946;-75
2023/12/23 16:18:37;;;;;;;;;;;10.40;99.90;;;;;;2617119;39;20360;-74
2023/12/23 16:21:07;;;;;;;;;;;10.40;99.90;;;;;;2618111;54;19946;-76
2023/12/23 16:23:36;;;;;;;;;;;10.40;99.90;;;;;;2618773;46;19950;-73
2023/12/23 16:26:06;;;;;;;;;;;10.70;99.90;;;;;;2616595;47;19949;-72
2023/12/23 16:28:36;;;;;;;;;;;10.50;99.90;;;;;;2618128;54;20038;-72
2023/12/23 16:31:06;;;;;;;;;;;10.50;99.90;;;;;;2618518;47;19939;-72